sensor_id;sensor_type;location;lat;lon;timestamp;temperature;humidity
55785;DHT22;41709;52.536;5.688;2022-10-10T00:02:03;10.60;69.90
55785;DHT22;41709;52.536;5.688;2022-10-10T00:04:29;10.50;70.50
55785;DHT22;41709;52.536;5.688;2022-10-10T00:06:54;10.50;69.90
55785;DHT22;41709;52.536;5.688;2022-10-10T00:09:20;10.40;69.90
55785;DHT22;41709;52.536;5.688;2022-10-10T00:11:46;10.40;70.20
55785;DHT22;41709;52.536;5.688;2022-10-10T00:14:11;10.40;70.20
55785;DHT22;41709;52.536;5.688;2022-10-10T00:16:37;10.40;70.20
55785;DHT22;41709;52.536;5.688;2022-10-10T00:19:03;10.40;70.30
55785;DHT22;41709;52.536;5.688;2022-10-10T00:21:28;10.40;70.20
55785;DHT22;41709;52.536;5.688;2022-10-10T00:23:54;10.40;70.20
55785;DHT22;41709;52.536;5.688;2022-10-10T00:26:19;10.30;70.10
55785;DHT22;41709;52.536;5.688;2022-10-10T00:28:46;10.30;70.10
55785;DHT22;41709;52.536;5.688;2022-10-10T00:31:12;10.30;70.10
55785;DHT22;41709;52.536;5.688;2022-10-10T00:33:38;10.30;70.20
55785;DHT22;41709;52.536;5.688;2022-10-10T00:36:04;10.30;70.20
55785;DHT22;41709;52.536;5.688;2022-10-10T00:38:30;10.30;70.20
55785;DHT22;41709;52.536;5.688;2022-10-10T00:40:57;10.30;70.50
55785;DHT22;41709;52.536;5.688;2022-10-10T00:43:24;10.30;70.50
55785;DHT22;41709;52.536;5.688;2022-10-10T00:45:50;10.20;70.30
55785;DHT22;41709;52.536;5.688;2022-10-10T00:48:34;10.20;70.30
55785;DHT22;41709;52.536;5.688;2022-10-10T00:51:04;10.10;70.40
55785;DHT22;41709;52.536;5.688;2022-10-10T00:53:43;10.20;70.60
55785;DHT22;41709;52.536;5.688;2022-10-10T00:56:10;10.20;70.70
55785;DHT22;41709;52.536;5.688;2022-10-10T00:58:39;10.20;70.80
55785;DHT22;41709;52.536;5.688;2022-10-10T01:01:06;10.20;70.40
55785;DHT22;41709;52.536;5.688;2022-10-10T01:03:32;10.20;70.30
55785;DHT22;41709;52.536;5.688;2022-10-10T01:05:57;10.20;70.50
55785;DHT22;41709;52.536;5.688;2022-10-10T01:08:23;10.10;70.60
55785;DHT22;41709;52.536;5.688;2022-10-10T01:16:43;10.10;70.70
55785;DHT22;41709;52.536;5.688;2022-10-10T01:19:36;10.00;70.70
55785;DHT22;41709;52.536;5.688;2022-10-10T01:22:31;10.00;70.50
55785;DHT22;41709;52.536;5.688;2022-10-10T01:27:41;9.90;70.50
55785;DHT22;41709;52.536;5.688;2022-10-10T01:30:15;9.90;70.70
55785;DHT22;41709;52.536;5.688;2022-10-10T01:33:07;9.90;70.70
55785;DHT22;41709;52.536;5.688;2022-10-10T01:41:03;9.80;71.20
55785;DHT22;41709;52.536;5.688;2022-10-10T01:43:30;9.70;71.30
55785;DHT22;41709;52.536;5.688;2022-10-10T01:45:56;9.70;71.70
55785;DHT22;41709;52.536;5.688;2022-10-10T01:48:31;9.70;71.80
55785;DHT22;41709;52.536;5.688;2022-10-10T01:54:01;9.60;72.20
55785;DHT22;41709;52.536;5.688;2022-10-10T01:59:39;9.60;72.60
55785;DHT22;41709;52.536;5.688;2022-10-10T02:02:22;9.60;72.90
55785;DHT22;41709;52.536;5.688;2022-10-10T02:07:52;9.60;73.00
55785;DHT22;41709;52.536;5.688;2022-10-10T02:10:23;9.60;73.10
55785;DHT22;41709;52.536;5.688;2022-10-10T02:12:50;9.60;73.20
55785;DHT22;41709;52.536;5.688;2022-10-10T02:15:19;9.60;73.40
55785;DHT22;41709;52.536;5.688;2022-10-10T02:17:47;9.60;73.40
55785;DHT22;41709;52.536;5.688;2022-10-10T02:20:16;9.60;73.40
55785;DHT22;41709;52.536;5.688;2022-10-10T02:22:44;9.60;73.50
55785;DHT22;41709;52.536;5.688;2022-10-10T02:25:11;9.70;73.60
55785;DHT22;41709;52.536;5.688;2022-10-10T02:30:07;9.70;73.70
55785;DHT22;41709;52.536;5.688;2022-10-10T02:32:43;9.70;73.70
55785;DHT22;41709;52.536;5.688;2022-10-10T02:35:21;9.70;73.70
55785;DHT22;41709;52.536;5.688;2022-10-10T02:37:47;9.70;73.70
55785;DHT22;41709;52.536;5.688;2022-10-10T02:40:19;9.70;73.60
55785;DHT22;41709;52.536;5.688;2022-10-10T02:42:46;9.80;73.70
55785;DHT22;41709;52.536;5.688;2022-10-10T02:45:13;9.80;73.70
55785;DHT22;41709;52.536;5.688;2022-10-10T02:47:39;9.80;73.70
55785;DHT22;41709;52.536;5.688;2022-10-10T02:50:05;9.80;73.80
55785;DHT22;41709;52.536;5.688;2022-10-10T02:52:31;9.80;73.70
55785;DHT22;41709;52.536;5.688;2022-10-10T02:54:56;9.80;73.80
55785;DHT22;41709;52.536;5.688;2022-10-10T02:57:22;9.80;73.90
55785;DHT22;41709;52.536;5.688;2022-10-10T02:59:47;9.80;73.90
55785;DHT22;41709;52.536;5.688;2022-10-10T03:02:13;9.80;73.90
55785;DHT22;41709;52.536;5.688;2022-10-10T03:04:38;9.80;73.90
55785;DHT22;41709;52.536;5.688;2022-10-10T03:07:04;9.80;73.90
55785;DHT22;41709;52.536;5.688;2022-10-10T03:09:30;9.80;74.10
55785;DHT22;41709;52.536;5.688;2022-10-10T03:11:55;9.80;74.30
55785;DHT22;41709;52.536;5.688;2022-10-10T03:14:21;9.80;74.40
55785;DHT22;41709;52.536;5.688;2022-10-10T03:16:46;9.80;74.30
55785;DHT22;41709;52.536;5.688;2022-10-10T03:19:12;9.80;74.20
55785;DHT22;41709;52.536;5.688;2022-10-10T03:21:37;9.80;74.30
55785;DHT22;41709;52.536;5.688;2022-10-10T03:24:03;9.90;74.30
55785;DHT22;41709;52.536;5.688;2022-10-10T03:26:30;9.90;74.30
55785;DHT22;41709;52.536;5.688;2022-10-10T03:28:56;9.90;74.30
55785;DHT22;41709;52.536;5.688;2022-10-10T03:31:21;9.80;74.30
55785;DHT22;41709;52.536;5.688;2022-10-10T03:33:47;9.90;74.50
55785;DHT22;41709;52.536;5.688;2022-10-10T03:36:13;9.90;74.50
55785;DHT22;41709;52.536;5.688;2022-10-10T03:38:39;9.80;74.40
55785;DHT22;41709;52.536;5.688;2022-10-10T03:41:04;9.90;74.50
55785;DHT22;41709;52.536;5.688;2022-10-10T03:43:30;9.80;74.50
55785;DHT22;41709;52.536;5.688;2022-10-10T03:45:56;9.80;74.50
55785;DHT22;41709;52.536;5.688;2022-10-10T03:48:21;9.80;74.60
55785;DHT22;41709;52.536;5.688;2022-10-10T03:50:47;9.80;74.60
55785;DHT22;41709;52.536;5.688;2022-10-10T03:53:12;9.80;74.70
55785;DHT22;41709;52.536;5.688;2022-10-10T03:55:39;9.80;74.80
55785;DHT22;41709;52.536;5.688;2022-10-10T03:58:05;9.80;74.80
55785;DHT22;41709;52.536;5.688;2022-10-10T04:00:31;9.80;75.00
55785;DHT22;41709;52.536;5.688;2022-10-10T04:02:56;9.90;75.10
55785;DHT22;41709;52.536;5.688;2022-10-10T04:05:22;9.80;75.20
55785;DHT22;41709;52.536;5.688;2022-10-10T04:07:47;9.80;75.20
55785;DHT22;41709;52.536;5.688;2022-10-10T04:10:13;9.80;75.30
55785;DHT22;41709;52.536;5.688;2022-10-10T04:12:39;9.80;75.40
55785;DHT22;41709;52.536;5.688;2022-10-10T04:15:05;9.80;76.10
55785;DHT22;41709;52.536;5.688;2022-10-10T04:17:30;9.80;75.40
55785;DHT22;41709;52.536;5.688;2022-10-10T04:19:56;9.80;75.40
55785;DHT22;41709;52.536;5.688;2022-10-10T04:22:21;9.70;75.40
55785;DHT22;41709;52.536;5.688;2022-10-10T04:24:47;9.70;75.60
55785;DHT22;41709;52.536;5.688;2022-10-10T04:27:13;9.70;75.70
55785;DHT22;41709;52.536;5.688;2022-10-10T04:29:38;9.70;75.60
55785;DHT22;41709;52.536;5.688;2022-10-10T04:32:04;9.70;75.70
55785;DHT22;41709;52.536;5.688;2022-10-10T04:34:30;9.70;75.80
55785;DHT22;41709;52.536;5.688;2022-10-10T04:36:55;9.70;75.80
55785;DHT22;41709;52.536;5.688;2022-10-10T04:39:21;9.70;75.80
55785;DHT22;41709;52.536;5.688;2022-10-10T04:41:47;9.70;75.80
55785;DHT22;41709;52.536;5.688;2022-10-10T04:44:16;9.70;75.80
55785;DHT22;41709;52.536;5.688;2022-10-10T04:46:42;9.70;75.90
55785;DHT22;41709;52.536;5.688;2022-10-10T04:49:07;9.60;75.80
55785;DHT22;41709;52.536;5.688;2022-10-10T04:51:33;9.60;76.00
55785;DHT22;41709;52.536;5.688;2022-10-10T04:53:58;9.60;76.20
55785;DHT22;41709;52.536;5.688;2022-10-10T04:56:25;9.60;76.20
55785;DHT22;41709;52.536;5.688;2022-10-10T04:58:51;9.60;76.20
55785;DHT22;41709;52.536;5.688;2022-10-10T05:01:16;9.50;76.10
55785;DHT22;41709;52.536;5.688;2022-10-10T05:03:42;9.50;76.40
55785;DHT22;41709;52.536;5.688;2022-10-10T05:06:08;9.50;76.50
55785;DHT22;41709;52.536;5.688;2022-10-10T05:08:33;9.50;76.60
55785;DHT22;41709;52.536;5.688;2022-10-10T05:10:59;9.50;76.60
55785;DHT22;41709;52.536;5.688;2022-10-10T05:13:25;9.50;76.70
55785;DHT22;41709;52.536;5.688;2022-10-10T05:15:50;9.50;76.70
55785;DHT22;41709;52.536;5.688;2022-10-10T05:18:17;9.50;76.90
55785;DHT22;41709;52.536;5.688;2022-10-10T05:20:42;9.50;77.10
55785;DHT22;41709;52.536;5.688;2022-10-10T05:23:15;9.50;77.10
55785;DHT22;41709;52.536;5.688;2022-10-10T05:25:46;9.50;77.20
55785;DHT22;41709;52.536;5.688;2022-10-10T05:28:12;9.40;77.30
55785;DHT22;41709;52.536;5.688;2022-10-10T05:30:37;9.40;77.30
55785;DHT22;41709;52.536;5.688;2022-10-10T05:33:03;9.40;77.60
55785;DHT22;41709;52.536;5.688;2022-10-10T05:35:29;9.40;77.80
55785;DHT22;41709;52.536;5.688;2022-10-10T05:37:54;9.40;78.00
55785;DHT22;41709;52.536;5.688;2022-10-10T05:40:20;9.40;78.20
55785;DHT22;41709;52.536;5.688;2022-10-10T05:42:45;9.40;78.30
55785;DHT22;41709;52.536;5.688;2022-10-10T05:45:11;9.40;79.10
55785;DHT22;41709;52.536;5.688;2022-10-10T05:47:36;9.40;78.40
55785;DHT22;41709;52.536;5.688;2022-10-10T05:50:03;9.40;78.60
55785;DHT22;41709;52.536;5.688;2022-10-10T05:52:28;9.40;78.60
55785;DHT22;41709;52.536;5.688;2022-10-10T05:54:54;9.40;78.60
55785;DHT22;41709;52.536;5.688;2022-10-10T05:57:19;9.40;78.60
55785;DHT22;41709;52.536;5.688;2022-10-10T05:59:45;9.40;78.70
55785;DHT22;41709;52.536;5.688;2022-10-10T06:02:12;9.40;78.90
55785;DHT22;41709;52.536;5.688;2022-10-10T06:04:38;9.40;79.10
55785;DHT22;41709;52.536;5.688;2022-10-10T06:07:03;9.40;79.20
55785;DHT22;41709;52.536;5.688;2022-10-10T06:09:29;9.40;79.30
55785;DHT22;41709;52.536;5.688;2022-10-10T06:11:54;9.40;79.40
55785;DHT22;41709;52.536;5.688;2022-10-10T06:14:20;9.40;79.50
55785;DHT22;41709;52.536;5.688;2022-10-10T06:16:46;9.40;79.60
55785;DHT22;41709;52.536;5.688;2022-10-10T06:19:11;9.40;79.70
55785;DHT22;41709;52.536;5.688;2022-10-10T06:21:37;9.40;79.80
55785;DHT22;41709;52.536;5.688;2022-10-10T06:24:02;9.30;79.90
55785;DHT22;41709;52.536;5.688;2022-10-10T06:26:28;9.40;80.00
55785;DHT22;41709;52.536;5.688;2022-10-10T06:28:54;9.30;80.10
55785;DHT22;41709;52.536;5.688;2022-10-10T06:31:19;9.40;80.30
55785;DHT22;41709;52.536;5.688;2022-10-10T06:33:45;9.30;80.30
55785;DHT22;41709;52.536;5.688;2022-10-10T06:36:11;9.40;80.50
55785;DHT22;41709;52.536;5.688;2022-10-10T06:38:42;9.30;80.40
55785;DHT22;41709;52.536;5.688;2022-10-10T06:41:09;9.40;80.50
55785;DHT22;41709;52.536;5.688;2022-10-10T06:43:35;9.40;80.60
55785;DHT22;41709;52.536;5.688;2022-10-10T06:46:01;9.40;80.70
55785;DHT22;41709;52.536;5.688;2022-10-10T06:48:27;9.40;80.80
55785;DHT22;41709;52.536;5.688;2022-10-10T06:51:01;9.40;80.90
55785;DHT22;41709;52.536;5.688;2022-10-10T06:53:30;9.40;81.00
55785;DHT22;41709;52.536;5.688;2022-10-10T06:55:56;9.50;81.10
55785;DHT22;41709;52.536;5.688;2022-10-10T06:58:22;9.50;81.10
55785;DHT22;41709;52.536;5.688;2022-10-10T07:00:53;9.40;81.20
55785;DHT22;41709;52.536;5.688;2022-10-10T07:03:20;9.40;81.30
55785;DHT22;41709;52.536;5.688;2022-10-10T07:05:50;9.50;81.50
55785;DHT22;41709;52.536;5.688;2022-10-10T07:08:16;9.50;81.60
55785;DHT22;41709;52.536;5.688;2022-10-10T07:10:41;9.50;81.70
55785;DHT22;41709;52.536;5.688;2022-10-10T07:13:07;9.50;81.80
55785;DHT22;41709;52.536;5.688;2022-10-10T07:15:33;9.50;81.90
55785;DHT22;41709;52.536;5.688;2022-10-10T07:17:59;9.60;82.10
55785;DHT22;41709;52.536;5.688;2022-10-10T07:20:25;9.60;82.10
55785;DHT22;41709;52.536;5.688;2022-10-10T07:22:51;9.60;82.20
55785;DHT22;41709;52.536;5.688;2022-10-10T07:25:17;9.70;82.40
55785;DHT22;41709;52.536;5.688;2022-10-10T07:27:42;9.70;82.40
55785;DHT22;41709;52.536;5.688;2022-10-10T07:30:08;9.80;82.50
55785;DHT22;41709;52.536;5.688;2022-10-10T07:32:34;9.80;82.40
55785;DHT22;41709;52.536;5.688;2022-10-10T07:34:59;9.90;82.40
55785;DHT22;41709;52.536;5.688;2022-10-10T07:37:25;9.90;82.20
55785;DHT22;41709;52.536;5.688;2022-10-10T07:39:54;10.00;82.30
55785;DHT22;41709;52.536;5.688;2022-10-10T07:42:20;10.00;82.20
55785;DHT22;41709;52.536;5.688;2022-10-10T07:44:45;10.10;82.30
55785;DHT22;41709;52.536;5.688;2022-10-10T07:47:11;10.20;82.30
55785;DHT22;41709;52.536;5.688;2022-10-10T07:49:37;10.20;82.30
55785;DHT22;41709;52.536;5.688;2022-10-10T07:52:03;10.30;82.30
55785;DHT22;41709;52.536;5.688;2022-10-10T07:54:29;10.30;82.10
55785;DHT22;41709;52.536;5.688;2022-10-10T07:56:56;10.40;82.10
55785;DHT22;41709;52.536;5.688;2022-10-10T07:59:22;10.40;82.10
55785;DHT22;41709;52.536;5.688;2022-10-10T08:01:47;10.50;81.90
55785;DHT22;41709;52.536;5.688;2022-10-10T08:04:13;10.50;81.90
55785;DHT22;41709;52.536;5.688;2022-10-10T08:06:39;10.60;81.80
55785;DHT22;41709;52.536;5.688;2022-10-10T08:09:04;10.60;81.70
55785;DHT22;41709;52.536;5.688;2022-10-10T08:11:30;10.70;81.60
55785;DHT22;41709;52.536;5.688;2022-10-10T08:13:55;10.70;81.60
55785;DHT22;41709;52.536;5.688;2022-10-10T08:16:21;10.80;81.60
55785;DHT22;41709;52.536;5.688;2022-10-10T08:18:47;10.80;81.30
55785;DHT22;41709;52.536;5.688;2022-10-10T08:21:14;10.90;81.30
55785;DHT22;41709;52.536;5.688;2022-10-10T08:23:40;10.90;81.10
55785;DHT22;41709;52.536;5.688;2022-10-10T08:26:08;11.00;81.20
55785;DHT22;41709;52.536;5.688;2022-10-10T08:28:34;11.10;81.20
55785;DHT22;41709;52.536;5.688;2022-10-10T08:31:07;11.20;80.90
55785;DHT22;41709;52.536;5.688;2022-10-10T08:33:33;11.20;81.00
55785;DHT22;41709;52.536;5.688;2022-10-10T08:36:07;11.30;81.00
55785;DHT22;41709;52.536;5.688;2022-10-10T08:38:33;11.40;80.80
55785;DHT22;41709;52.536;5.688;2022-10-10T08:41:00;11.40;80.70
55785;DHT22;41709;52.536;5.688;2022-10-10T08:43:43;11.50;80.50
55785;DHT22;41709;52.536;5.688;2022-10-10T08:46:36;11.70;80.40
55785;DHT22;41709;52.536;5.688;2022-10-10T08:49:18;11.80;80.00
55785;DHT22;41709;52.536;5.688;2022-10-10T08:51:50;11.90;79.60
55785;DHT22;41709;52.536;5.688;2022-10-10T08:54:20;11.90;79.50
55785;DHT22;41709;52.536;5.688;2022-10-10T08:56:47;12.00;79.60
55785;DHT22;41709;52.536;5.688;2022-10-10T08:59:23;12.10;79.90
55785;DHT22;41709;52.536;5.688;2022-10-10T09:01:57;12.10;79.40
55785;DHT22;41709;52.536;5.688;2022-10-10T09:04:24;12.20;79.60
55785;DHT22;41709;52.536;5.688;2022-10-10T09:07:18;12.20;79.40
55785;DHT22;41709;52.536;5.688;2022-10-10T09:13:08;12.40;79.50
55785;DHT22;41709;52.536;5.688;2022-10-10T09:16:43;12.40;79.60
55785;DHT22;41709;52.536;5.688;2022-10-10T09:18:53;12.50;79.50
55785;DHT22;41709;52.536;5.688;2022-10-10T09:21:28;12.60;79.20
55785;DHT22;41709;52.536;5.688;2022-10-10T09:24:03;12.60;79.20
55785;DHT22;41709;52.536;5.688;2022-10-10T09:26:36;12.70;80.00
55785;DHT22;41709;52.536;5.688;2022-10-10T09:31:53;12.80;78.90
55785;DHT22;41709;52.536;5.688;2022-10-10T09:34:39;12.90;78.80
55785;DHT22;41709;52.536;5.688;2022-10-10T09:37:18;12.90;78.60
55785;DHT22;41709;52.536;5.688;2022-10-10T09:39:51;12.90;78.50
55785;DHT22;41709;52.536;5.688;2022-10-10T09:42:21;13.00;78.50
55785;DHT22;41709;52.536;5.688;2022-10-10T09:44:50;13.00;78.70
55785;DHT22;41709;52.536;5.688;2022-10-10T09:47:16;13.10;78.30
55785;DHT22;41709;52.536;5.688;2022-10-10T09:49:43;13.10;78.30
55785;DHT22;41709;52.536;5.688;2022-10-10T09:52:25;13.20;78.20
55785;DHT22;41709;52.536;5.688;2022-10-10T09:55:05;13.30;78.20
55785;DHT22;41709;52.536;5.688;2022-10-10T09:57:40;13.30;78.20
55785;DHT22;41709;52.536;5.688;2022-10-10T10:00:25;13.40;77.90
55785;DHT22;41709;52.536;5.688;2022-10-10T10:03:16;13.50;77.70
55785;DHT22;41709;52.536;5.688;2022-10-10T10:05:53;13.60;77.90
55785;DHT22;41709;52.536;5.688;2022-10-10T10:08:31;13.60;77.40
55785;DHT22;41709;52.536;5.688;2022-10-10T10:10:57;13.70;77.10
55785;DHT22;41709;52.536;5.688;2022-10-10T10:13:35;13.70;77.00
55785;DHT22;41709;52.536;5.688;2022-10-10T10:16:13;13.70;76.80
55785;DHT22;41709;52.536;5.688;2022-10-10T10:18:41;13.80;76.90
55785;DHT22;41709;52.536;5.688;2022-10-10T10:23:48;13.90;76.70
55785;DHT22;41709;52.536;5.688;2022-10-10T10:28:52;13.90;76.40
55785;DHT22;41709;52.536;5.688;2022-10-10T10:48:15;14.10;77.00
55785;DHT22;41709;52.536;5.688;2022-10-10T10:50:55;14.00;77.10
55785;DHT22;41709;52.536;5.688;2022-10-10T10:56:27;14.00;77.70
55785;DHT22;41709;52.536;5.688;2022-10-10T11:01:50;14.10;77.50
55785;DHT22;41709;52.536;5.688;2022-10-10T11:07:21;14.20;77.90
55785;DHT22;41709;52.536;5.688;2022-10-10T11:10:13;14.20;77.90
55785;DHT22;41709;52.536;5.688;2022-10-10T11:15:39;14.30;77.90
55785;DHT22;41709;52.536;5.688;2022-10-10T11:18:26;14.30;78.00
55785;DHT22;41709;52.536;5.688;2022-10-10T11:21:03;14.30;77.80
55785;DHT22;41709;52.536;5.688;2022-10-10T11:26:19;14.20;78.90
55785;DHT22;41709;52.536;5.688;2022-10-10T11:31:39;14.20;80.50
55785;DHT22;41709;52.536;5.688;2022-10-10T11:34:12;14.10;80.20
55785;DHT22;41709;52.536;5.688;2022-10-10T11:36:43;14.10;80.70
55785;DHT22;41709;52.536;5.688;2022-10-10T11:39:14;14.10;81.60
55785;DHT22;41709;52.536;5.688;2022-10-10T11:41:46;14.00;82.70
55785;DHT22;41709;52.536;5.688;2022-10-10T11:44:24;14.00;83.80
55785;DHT22;41709;52.536;5.688;2022-10-10T11:47:01;13.90;84.60
55785;DHT22;41709;52.536;5.688;2022-10-10T11:49:46;13.90;85.30
55785;DHT22;41709;52.536;5.688;2022-10-10T11:52:29;13.80;85.80
55785;DHT22;41709;52.536;5.688;2022-10-10T11:57:53;13.70;86.80
55785;DHT22;41709;52.536;5.688;2022-10-10T12:00:20;13.70;87.10
55785;DHT22;41709;52.536;5.688;2022-10-10T12:02:47;13.70;87.40
55785;DHT22;41709;52.536;5.688;2022-10-10T12:10:48;13.70;87.90
55785;DHT22;41709;52.536;5.688;2022-10-10T12:13:34;13.70;88.00
55785;DHT22;41709;52.536;5.688;2022-10-10T12:16:16;13.70;88.00
55785;DHT22;41709;52.536;5.688;2022-10-10T12:18:45;13.70;88.30
55785;DHT22;41709;52.536;5.688;2022-10-10T12:21:17;13.70;88.80
55785;DHT22;41709;52.536;5.688;2022-10-10T12:23:46;13.70;89.10
55785;DHT22;41709;52.536;5.688;2022-10-10T12:26:19;13.60;89.30
55785;DHT22;41709;52.536;5.688;2022-10-10T12:31:28;13.60;89.70
55785;DHT22;41709;52.536;5.688;2022-10-10T12:34:00;13.50;89.80
55785;DHT22;41709;52.536;5.688;2022-10-10T12:44:24;13.50;90.40
55785;DHT22;41709;52.536;5.688;2022-10-10T12:52:40;13.40;90.60
55785;DHT22;41709;52.536;5.688;2022-10-10T12:55:23;13.40;90.60
55785;DHT22;41709;52.536;5.688;2022-10-10T12:57:52;13.40;90.70
55785;DHT22;41709;52.536;5.688;2022-10-10T13:00:22;13.40;90.70
55785;DHT22;41709;52.536;5.688;2022-10-10T13:03:01;13.40;90.80
55785;DHT22;41709;52.536;5.688;2022-10-10T13:05:33;13.40;91.00
55785;DHT22;41709;52.536;5.688;2022-10-10T13:08:07;13.40;90.90
55785;DHT22;41709;52.536;5.688;2022-10-10T13:10:36;13.40;91.00
55785;DHT22;41709;52.536;5.688;2022-10-10T13:13:19;13.40;91.10
55785;DHT22;41709;52.536;5.688;2022-10-10T13:15:56;13.40;91.00
55785;DHT22;41709;52.536;5.688;2022-10-10T13:21:19;13.50;90.90
55785;DHT22;41709;52.536;5.688;2022-10-10T13:23:47;13.50;90.80
55785;DHT22;41709;52.536;5.688;2022-10-10T13:26:21;13.50;90.90
55785;DHT22;41709;52.536;5.688;2022-10-10T13:28:49;13.50;90.90
55785;DHT22;41709;52.536;5.688;2022-10-10T13:31:14;13.50;90.60
55785;DHT22;41709;52.536;5.688;2022-10-10T13:33:40;13.10;90.30
55785;DHT22;41709;52.536;5.688;2022-10-10T13:36:14;13.10;90.00
55785;DHT22;41709;52.536;5.688;2022-10-10T13:38:42;13.00;89.80
55785;DHT22;41709;52.536;5.688;2022-10-10T13:41:08;12.90;89.90
55785;DHT22;41709;52.536;5.688;2022-10-10T13:43:34;12.90;90.00
55785;DHT22;41709;52.536;5.688;2022-10-10T13:46:02;12.90;89.90
55785;DHT22;41709;52.536;5.688;2022-10-10T13:51:11;12.80;89.90
55785;DHT22;41709;52.536;5.688;2022-10-10T13:53:49;12.80;90.20
55785;DHT22;41709;52.536;5.688;2022-10-10T13:56:28;12.60;90.30
55785;DHT22;41709;52.536;5.688;2022-10-10T14:06:31;12.10;90.20
55785;DHT22;41709;52.536;5.688;2022-10-10T14:09:08;12.00;90.20
55785;DHT22;41709;52.536;5.688;2022-10-10T14:11:34;11.90;89.60
55785;DHT22;41709;52.536;5.688;2022-10-10T14:14:47;11.80;89.80
55785;DHT22;41709;52.536;5.688;2022-10-10T14:17:00;11.90;89.50
55785;DHT22;41709;52.536;5.688;2022-10-10T14:19:26;11.90;89.40
55785;DHT22;41709;52.536;5.688;2022-10-10T14:21:52;11.90;89.40
55785;DHT22;41709;52.536;5.688;2022-10-10T14:24:18;12.00;89.70
55785;DHT22;41709;52.536;5.688;2022-10-10T14:26:43;12.00;89.60
55785;DHT22;41709;52.536;5.688;2022-10-10T14:29:16;12.00;89.20
55785;DHT22;41709;52.536;5.688;2022-10-10T14:31:42;12.00;89.00
55785;DHT22;41709;52.536;5.688;2022-10-10T14:34:09;12.10;89.30
55785;DHT22;41709;52.536;5.688;2022-10-10T14:36:41;12.10;89.30
55785;DHT22;41709;52.536;5.688;2022-10-10T14:39:12;12.30;89.60
55785;DHT22;41709;52.536;5.688;2022-10-10T14:41:37;12.40;89.90
55785;DHT22;41709;52.536;5.688;2022-10-10T14:44:03;12.60;89.20
55785;DHT22;41709;52.536;5.688;2022-10-10T14:46:28;12.60;89.20
55785;DHT22;41709;52.536;5.688;2022-10-10T14:48:54;12.70;89.10
55785;DHT22;41709;52.536;5.688;2022-10-10T14:51:19;12.80;88.70
55785;DHT22;41709;52.536;5.688;2022-10-10T14:53:45;12.80;88.70
55785;DHT22;41709;52.536;5.688;2022-10-10T14:56:11;12.80;88.50
55785;DHT22;41709;52.536;5.688;2022-10-10T14:58:36;12.90;89.10
55785;DHT22;41709;52.536;5.688;2022-10-10T15:01:02;13.10;88.30
55785;DHT22;41709;52.536;5.688;2022-10-10T15:03:28;13.30;88.10
55785;DHT22;41709;52.536;5.688;2022-10-10T15:05:53;13.60;85.70
55785;DHT22;41709;52.536;5.688;2022-10-10T15:08:19;13.90;84.10
55785;DHT22;41709;52.536;5.688;2022-10-10T15:10:45;14.20;78.90
55785;DHT22;41709;52.536;5.688;2022-10-10T15:13:11;14.40;76.10
55785;DHT22;41709;52.536;5.688;2022-10-10T15:15:37;14.60;74.10
55785;DHT22;41709;52.536;5.688;2022-10-10T15:18:03;14.70;72.10
55785;DHT22;41709;52.536;5.688;2022-10-10T15:20:29;14.90;70.90
55785;DHT22;41709;52.536;5.688;2022-10-10T15:23:05;15.00;69.90
55785;DHT22;41709;52.536;5.688;2022-10-10T15:25:31;15.30;69.40
55785;DHT22;41709;52.536;5.688;2022-10-10T15:27:56;15.30;68.70
55785;DHT22;41709;52.536;5.688;2022-10-10T15:30:23;15.50;68.90
55785;DHT22;41709;52.536;5.688;2022-10-10T15:32:49;15.60;68.30
55785;DHT22;41709;52.536;5.688;2022-10-10T15:35:17;15.60;67.70
55785;DHT22;41709;52.536;5.688;2022-10-10T15:37:43;15.70;67.20
55785;DHT22;41709;52.536;5.688;2022-10-10T15:40:11;15.80;67.50
55785;DHT22;41709;52.536;5.688;2022-10-10T15:42:37;15.80;66.60
55785;DHT22;41709;52.536;5.688;2022-10-10T15:45:03;15.90;66.70
55785;DHT22;41709;52.536;5.688;2022-10-10T15:47:29;15.90;66.70
55785;DHT22;41709;52.536;5.688;2022-10-10T15:49:55;15.80;66.70
55785;DHT22;41709;52.536;5.688;2022-10-10T15:52:21;15.60;65.50
55785;DHT22;41709;52.536;5.688;2022-10-10T15:54:48;15.30;65.40
55785;DHT22;41709;52.536;5.688;2022-10-10T15:57:15;15.20;66.70
55785;DHT22;41709;52.536;5.688;2022-10-10T15:59:42;15.10;66.80
55785;DHT22;41709;52.536;5.688;2022-10-10T16:02:09;14.90;66.20
55785;DHT22;41709;52.536;5.688;2022-10-10T16:04:35;14.90;67.30
55785;DHT22;41709;52.536;5.688;2022-10-10T16:07:01;14.90;67.30
55785;DHT22;41709;52.536;5.688;2022-10-10T16:09:26;14.50;67.50
55785;DHT22;41709;52.536;5.688;2022-10-10T16:11:52;14.40;68.50
55785;DHT22;41709;52.536;5.688;2022-10-10T16:14:17;14.20;69.10
55785;DHT22;41709;52.536;5.688;2022-10-10T16:16:43;14.20;69.50
55785;DHT22;41709;52.536;5.688;2022-10-10T16:19:09;14.00;69.40
55785;DHT22;41709;52.536;5.688;2022-10-10T16:21:34;14.00;69.80
55785;DHT22;41709;52.536;5.688;2022-10-10T16:24:00;13.90;70.20
55785;DHT22;41709;52.536;5.688;2022-10-10T16:26:28;13.80;71.20
55785;DHT22;41709;52.536;5.688;2022-10-10T16:28:55;13.70;70.50
55785;DHT22;41709;52.536;5.688;2022-10-10T16:31:20;13.70;71.10
55785;DHT22;41709;52.536;5.688;2022-10-10T16:33:47;13.50;70.90
55785;DHT22;41709;52.536;5.688;2022-10-10T16:36:25;13.50;71.80
55785;DHT22;41709;52.536;5.688;2022-10-10T16:38:51;13.40;71.90
55785;DHT22;41709;52.536;5.688;2022-10-10T16:41:23;13.40;72.10
55785;DHT22;41709;52.536;5.688;2022-10-10T16:43:49;13.40;72.10
55785;DHT22;41709;52.536;5.688;2022-10-10T16:46:20;13.30;72.30
55785;DHT22;41709;52.536;5.688;2022-10-10T16:48:46;13.30;72.50
55785;DHT22;41709;52.536;5.688;2022-10-10T16:51:20;13.20;72.60
55785;DHT22;41709;52.536;5.688;2022-10-10T16:53:48;13.10;72.90
55785;DHT22;41709;52.536;5.688;2022-10-10T16:56:16;13.10;73.00
55785;DHT22;41709;52.536;5.688;2022-10-10T16:58:42;13.10;72.90
55785;DHT22;41709;52.536;5.688;2022-10-10T17:01:09;12.90;72.80
55785;DHT22;41709;52.536;5.688;2022-10-10T17:03:35;12.90;73.10
55785;DHT22;41709;52.536;5.688;2022-10-10T17:06:10;12.80;73.10
55785;DHT22;41709;52.536;5.688;2022-10-10T17:08:37;12.70;73.30
55785;DHT22;41709;52.536;5.688;2022-10-10T17:11:03;12.60;73.70
55785;DHT22;41709;52.536;5.688;2022-10-10T17:13:30;12.60;74.00
55785;DHT22;41709;52.536;5.688;2022-10-10T17:15:56;12.50;74.20
55785;DHT22;41709;52.536;5.688;2022-10-10T17:18:22;12.60;74.40
55785;DHT22;41709;52.536;5.688;2022-10-10T17:20:48;12.70;74.80
55785;DHT22;41709;52.536;5.688;2022-10-10T17:23:15;12.50;74.60
55785;DHT22;41709;52.536;5.688;2022-10-10T17:25:45;12.50;74.30
55785;DHT22;41709;52.536;5.688;2022-10-10T17:28:11;12.40;74.20
55785;DHT22;41709;52.536;5.688;2022-10-10T17:30:42;12.40;74.60
55785;DHT22;41709;52.536;5.688;2022-10-10T17:33:07;12.30;74.70
55785;DHT22;41709;52.536;5.688;2022-10-10T17:35:33;12.30;74.90
55785;DHT22;41709;52.536;5.688;2022-10-10T17:37:59;12.20;75.20